メインページ
METAR-TAF:

METAR-TAF

空港 :

サーリー, イラン

緯度: 36-38-09N, 経度: 53-11-37E, 海抜: 11m

現時点の気象観測

当レポートは1時間13分前の17:00(UTC)に作成
の風 2kt
気温 9°C
湿度 93%
気圧 1030 hPa
視程10km以上
高度9000ftの雲はほとんどない

METAR: OINZ 171700Z 18002KT 9999 FEW090 09/08 Q1030

時間: 21:43 (18:13 UTC)


TAF: 見つかりません

4,000以上の空港の気象観測と天気予報(METAR報とTAF報)

利用可能な観測所は地図上に黄色い丸と赤い丸で示す。

丸の上にカーソルを重ねると観測所名を参照できる。

次にクリックすると気象観測と天気予報を参照できる。

マップの切り替え:黒色「×」印の緑ボタンをクリックして拡大、「-」印の緑ボタンをクリックして縮小、緑色の三角印をクリックして隣りの地図に切り替え


METAR-TAF: